Time;durP1;ratioP1;P1;durP2;ratioP2;P2;SDS_P1;SDS_P2;PMS_P1;PMS_P2;Temp;Humidity;BMP_temperature;BMP_pressure;BME280_temperature;BME280_humidity;BME280_pressure;Samples;Min_cycle;Max_cycle;Signal;HPM_P1;HPM_P2
2023/01/19 00:01:54;;;;;;;14.48;7.85;;;;;;;;;;5071058;28;20029;-58
2023/01/19 00:04:19;;;;;;;12.85;7.13;;;;;;;;;;5067381;28;20028;-56
2023/01/19 00:06:45;;;;;;;13.63;7.43;;;;;;;;;;5070971;28;20111;-59
2023/01/19 00:09:10;;;;;;;12.18;7.38;;;;;;;;;;5069217;28;20052;-55
2023/01/19 00:11:36;;;;;;;12.57;7.40;;;;;;;;;;5066950;28;20411;-58
2023/01/19 00:14:02;;;;;;;11.55;6.47;;;;;;;;;;5066598;28;20047;-57
2023/01/19 00:16:27;;;;;;;11.85;6.60;;;;;;;;;;5067067;28;20139;-55
2023/01/19 00:18:52;;;;;;;15.40;7.53;;;;;;;;;;5076637;28;20065;-56
2023/01/19 00:21:20;;;;;;;10.60;5.68;;;;;;;;;;5069641;28;20036;-55
2023/01/19 00:23:49;;;;;;;13.40;7.15;;;;;;;;;;5068447;28;20188;-58
2023/01/19 00:26:16;;;;;;;13.57;7.28;;;;;;;;;;5066852;28;20029;-56
2023/01/19 00:28:43;;;;;;;10.98;5.90;;;;;;;;;;5081944;28;20086;-58
2023/01/19 00:31:08;;;;;;;9.82;5.50;;;;;;;;;;5070702;28;20028;-60
2023/01/19 00:33:34;;;;;;;12.52;7.32;;;;;;;;;;5068560;28;20035;-55
2023/01/19 00:35:59;;;;;;;16.05;8.15;;;;;;;;;;5070502;28;20424;-58
2023/01/19 00:38:24;;;;;;;17.95;6.55;;;;;;;;;;5065065;28;20069;-59
2023/01/19 00:40:50;;;;;;;12.82;6.95;;;;;;;;;;5067313;28;20025;-59
2023/01/19 00:43:15;;;;;;;16.73;8.73;;;;;;;;;;5070462;28;20029;-58
2023/01/19 00:45:41;;;;;;;12.65;7.20;;;;;;;;;;5077859;28;20024;-60
2023/01/19 00:48:06;;;;;;;16.35;7.13;;;;;;;;;;5067059;28;20055;-59
2023/01/19 00:50:32;;;;;;;12.02;7.15;;;;;;;;;;5062207;28;20384;-56
2023/01/19 00:53:02;;;;;;;13.82;7.68;;;;;;;;;;5074361;28;20074;-57
2023/01/19 00:55:30;;;;;;;11.43;6.45;;;;;;;;;;5068428;28;20126;-56
2023/01/19 00:57:56;;;;;;;14.95;7.75;;;;;;;;;;5068990;28;20037;-56
2023/01/19 01:00:22;;;;;;;12.85;6.47;;;;;;;;;;5065881;28;20116;-58
2023/01/19 01:02:49;;;;;;;13.90;8.30;;;;;;;;;;5057173;28;20139;-56
2023/01/19 01:05:15;;;;;;;12.55;6.72;;;;;;;;;;5066793;28;20047;-57
2023/01/19 01:07:43;;;;;;;12.60;7.57;;;;;;;;;;5059678;28;20397;-56
2023/01/19 01:10:29;;;;;;;11.50;6.97;;;;;;;;;;5073679;28;20047;-60
2023/01/19 01:12:55;;;;;;;14.32;7.82;;;;;;;;;;5076490;28;20056;-57
2023/01/19 01:15:21;;;;;;;26.10;6.72;;;;;;;;;;5094007;28;20036;-52
2023/01/19 01:17:46;;;;;;;12.65;6.90;;;;;;;;;;5092433;28;20400;-56
2023/01/19 01:20:16;;;;;;;13.05;7.13;;;;;;;;;;5074294;28;20032;-59
2023/01/19 01:22:44;;;;;;;12.75;6.75;;;;;;;;;;5094979;28;20036;-53
2023/01/19 01:25:11;;;;;;;16.02;8.45;;;;;;;;;;5092993;28;20075;-60
2023/01/19 01:27:37;;;;;;;14.05;8.35;;;;;;;;;;5094041;28;20124;-56
2023/01/19 01:30:03;;;;;;;17.90;9.32;;;;;;;;;;5093649;28;20456;-54
2023/01/19 01:32:29;;;;;;;21.48;7.53;;;;;;;;;;5053688;28;20119;-56
2023/01/19 01:34:54;;;;;;;14.18;8.00;;;;;;;;;;5053147;28;20115;-58
2023/01/19 01:37:20;;;;;;;10.98;6.35;;;;;;;;;;5057312;28;20124;-57
2023/01/19 01:39:45;;;;;;;18.63;8.82;;;;;;;;;;5070251;28;20039;-56
2023/01/19 01:42:17;;;;;;;18.48;8.93;;;;;;;;;;5071271;28;20354;-58
2023/01/19 01:44:53;;;;;;;12.77;7.65;;;;;;;;;;5070409;28;20413;-57
2023/01/19 01:47:36;;;;;;;11.95;6.82;;;;;;;;;;5071469;28;20389;-58
2023/01/19 01:50:19;;;;;;;15.65;8.07;;;;;;;;;;5073990;28;20058;-57
2023/01/19 01:52:54;;;;;;;11.52;6.75;;;;;;;;;;5054161;28;20366;-53
2023/01/19 01:55:21;;;;;;;15.15;7.47;;;;;;;;;;5072606;28;20028;-56
2023/01/19 01:57:50;;;;;;;13.65;6.63;;;;;;;;;;5072819;28;20028;-55
2023/01/19 02:00:16;;;;;;;18.42;8.90;;;;;;;;;;5072513;28;20044;-57
2023/01/19 02:02:52;;;;;;;11.77;6.47;;;;;;;;;;5056646;28;20470;-56
2023/01/19 02:05:30;;;;;;;10.35;5.55;;;;;;;;;;5053130;28;20039;-55
2023/01/19 02:13:45;;;;;;;13.75;7.35;;;;;;;;;;5073449;28;20089;-59
2023/01/19 02:16:12;;;;;;;12.13;5.43;;;;;;;;;;5073791;28;20029;-58
2023/01/19 02:18:38;;;;;;;15.15;8.52;;;;;;;;;;5071277;28;20040;-56
2023/01/19 02:21:11;;;;;;;14.80;8.52;;;;;;;;;;5073627;28;20377;-55
2023/01/19 02:23:46;;;;;;;10.35;6.35;;;;;;;;;;5091346;28;20043;-54
2023/01/19 02:26:19;;;;;;;17.23;7.93;;;;;;;;;;5094000;28;20039;-56
2023/01/19 02:28:49;;;;;;;11.65;6.38;;;;;;;;;;5066564;28;20058;-57
2023/01/19 02:31:14;;;;;;;15.35;7.82;;;;;;;;;;5080359;28;20036;-59
2023/01/19 02:33:40;;;;;;;12.70;6.97;;;;;;;;;;5093204;28;20081;-55
2023/01/19 02:36:08;;;;;;;13.52;6.78;;;;;;;;;;5079403;28;20099;-58
2023/01/19 02:38:35;;;;;;;10.98;7.05;;;;;;;;;;5064197;28;20646;-56
2023/01/19 02:41:04;;;;;;;16.35;8.05;;;;;;;;;;5076844;28;20050;-57
2023/01/19 02:43:30;;;;;;;11.90;6.45;;;;;;;;;;5080940;28;20083;-56
2023/01/19 02:45:56;;;;;;;10.43;5.82;;;;;;;;;;5070092;28;20020;-58
2023/01/19 02:48:22;;;;;;;16.98;7.32;;;;;;;;;;5068020;28;20075;-55
2023/01/19 02:50:56;;;;;;;11.80;5.95;;;;;;;;;;5073103;28;20392;-57
2023/01/19 02:53:40;;;;;;;17.05;7.00;;;;;;;;;;5066142;28;20090;-57
2023/01/19 02:56:39;;;;;;;14.10;6.07;;;;;;;;;;5063939;28;20116;-56
2023/01/19 02:59:36;;;;;;;10.52;5.90;;;;;;;;;;5055621;28;20037;-57
2023/01/19 03:02:21;;;;;;;10.68;5.95;;;;;;;;;;5069195;28;20044;-56
2023/01/19 03:05:11;;;;;;;12.50;7.13;;;;;;;;;;5055225;28;20087;-57
2023/01/19 03:07:45;;;;;;;10.25;5.70;;;;;;;;;;5062341;28;20644;-53
2023/01/19 03:10:57;;;;;;;12.93;6.72;;;;;;;;;;5067967;28;20043;-56
2023/01/19 03:13:32;;;;;;;;;;;;;;;;;;5065169;28;20032;-58
2023/01/19 03:16:11;;;;;;;11.98;6.30;;;;;;;;;;5055063;28;20007;-56
2023/01/19 03:18:41;;;;;;;15.07;7.80;;;;;;;;;;5069789;28;20046;-57
2023/01/19 03:21:09;;;;;;;17.33;8.53;;;;;;;;;;5055444;28;20028;-55
2023/01/19 03:23:37;;;;;;;18.80;8.18;;;;;;;;;;5063397;28;20081;-54
2023/01/19 03:26:04;;;;;;;14.65;7.22;;;;;;;;;;5091678;28;20028;-56
2023/01/19 03:28:34;;;;;;;11.30;6.00;;;;;;;;;;5073269;28;20032;-57
2023/01/19 03:31:10;;;;;;;13.05;7.15;;;;;;;;;;5067956;28;20042;-56
2023/01/19 03:33:39;;;;;;;12.18;6.32;;;;;;;;;;5061670;28;20029;-55
2023/01/19 03:36:12;;;;;;;15.13;7.43;;;;;;;;;;5071734;28;20031;-57
2023/01/19 03:38:41;;;;;;;12.65;6.70;;;;;;;;;;5070765;28;20182;-58
2023/01/19 03:41:10;;;;;;;12.32;6.70;;;;;;;;;;5069620;28;20123;-58
2023/01/19 03:43:37;;;;;;;16.45;8.43;;;;;;;;;;5070673;28;20032;-54
2023/01/19 03:46:04;;;;;;;10.20;6.25;;;;;;;;;;5070279;28;20025;-57
2023/01/19 03:48:31;;;;;;;10.32;6.00;;;;;;;;;;5067158;28;20103;-57
2023/01/19 03:50:57;;;;;;;11.77;5.43;;;;;;;;;;5055600;28;20111;-58
2023/01/19 03:53:22;;;;;;;13.07;5.70;;;;;;;;;;5065895;28;20490;-58
2023/01/19 03:55:50;;;;;;;9.07;4.97;;;;;;;;;;5069325;28;20385;-56
2023/01/19 03:58:16;;;;;;;17.48;8.52;;;;;;;;;;5070877;28;20369;-57
2023/01/19 04:00:42;;;;;;;11.88;7.22;;;;;;;;;;5064643;28;20045;-59
2023/01/19 04:03:13;;;;;;;12.45;7.10;;;;;;;;;;5059369;28;20053;-57
2023/01/19 04:05:39;;;;;;;17.55;7.97;;;;;;;;;;5060613;28;20482;-55
2023/01/19 04:08:04;;;;;;;15.80;8.40;;;;;;;;;;5071021;28;20067;-54
2023/01/19 04:10:30;;;;;;;10.68;5.80;;;;;;;;;;5070019;28;20029;-57
2023/01/19 04:13:00;;;;;;;15.13;7.38;;;;;;;;;;5068763;28;20047;-57
2023/01/19 04:15:26;;;;;;;14.93;6.65;;;;;;;;;;5069312;28;20127;-62
2023/01/19 04:17:51;;;;;;;14.50;7.28;;;;;;;;;;5070346;28;20440;-59
2023/01/19 04:20:17;;;;;;;17.05;9.40;;;;;;;;;;5068240;28;20758;-58
2023/01/19 04:22:42;;;;;;;16.33;8.23;;;;;;;;;;5069780;28;20036;-61
2023/01/19 04:25:09;;;;;;;14.65;7.60;;;;;;;;;;5069935;28;20029;-59
2023/01/19 04:27:35;;;;;;;16.80;9.30;;;;;;;;;;5068576;28;20029;-58
2023/01/19 04:30:03;;;;;;;18.50;8.90;;;;;;;;;;5070876;28;20032;-57
2023/01/19 04:32:29;;;;;;;16.67;8.80;;;;;;;;;;5068390;28;20106;-56
2023/01/19 04:34:54;;;;;;;17.92;8.48;;;;;;;;;;5071661;28;20039;-57
2023/01/19 04:37:20;;;;;;;16.98;8.73;;;;;;;;;;5074072;28;20032;-62
2023/01/19 04:39:46;;;;;;;17.60;8.93;;;;;;;;;;5070559;28;20025;-60
2023/01/19 04:42:11;;;;;;;22.13;11.00;;;;;;;;;;5058936;28;20365;-61
2023/01/19 04:44:37;;;;;;;19.63;10.27;;;;;;;;;;5074097;28;20080;-61
2023/01/19 04:47:02;;;;;;;18.88;8.38;;;;;;;;;;5074116;28;20028;-61
2023/01/19 04:49:28;;;;;;;12.07;6.55;;;;;;;;;;5069331;28;20047;-61
2023/01/19 04:51:53;;;;;;;25.27;11.40;;;;;;;;;;5073093;28;20044;-61
2023/01/19 04:54:20;;;;;;;19.45;9.07;;;;;;;;;;5064627;28;20447;-61
2023/01/19 04:56:45;;;;;;;21.67;10.70;;;;;;;;;;5065715;28;20043;-61
2023/01/19 04:59:11;;;;;;;17.80;9.32;;;;;;;;;;5075066;28;20377;-61
2023/01/19 05:01:36;;;;;;;11.73;5.93;;;;;;;;;;5071642;28;20032;-61
2023/01/19 05:04:04;;;;;;;12.23;7.00;;;;;;;;;;5057033;28;20037;-61
2023/01/19 05:06:29;;;;;;;15.95;7.47;;;;;;;;;;5057647;28;20060;-61
2023/01/19 05:08:55;;;;;;;9.60;6.20;;;;;;;;;;5054633;28;20072;-62
2023/01/19 05:11:20;;;;;;;21.83;9.10;;;;;;;;;;5082515;28;20387;-61
2023/01/19 05:13:46;;;;;;;24.92;11.30;;;;;;;;;;5073413;28;20032;-62
2023/01/19 05:16:12;;;;;;;17.27;8.10;;;;;;;;;;5069788;28;20043;-62
2023/01/19 05:18:38;;;;;;;26.52;11.88;;;;;;;;;;5072187;28;20111;-62
2023/01/19 05:21:05;;;;;;;11.50;6.18;;;;;;;;;;5074113;28;20060;-62
2023/01/19 05:23:31;;;;;;;13.90;6.55;;;;;;;;;;5074213;28;20097;-61
2023/01/19 05:25:59;;;;;;;18.08;8.90;;;;;;;;;;5087220;28;20039;-63
2023/01/19 05:28:26;;;;;;;23.65;10.40;;;;;;;;;;5071415;28;20091;-61
2023/01/19 05:30:53;;;;;;;15.57;8.15;;;;;;;;;;5074261;28;20029;-63
2023/01/19 05:33:19;;;;;;;27.45;13.23;;;;;;;;;;5069745;28;20119;-62
2023/01/19 05:35:44;;;;;;;20.50;11.30;;;;;;;;;;5072558;28;20682;-62
2023/01/19 05:38:09;;;;;;;14.30;7.40;;;;;;;;;;5071080;28;20389;-62
2023/01/19 05:40:35;;;;;;;14.57;8.13;;;;;;;;;;5059429;28;20029;-62
2023/01/19 05:43:03;;;;;;;15.05;7.95;;;;;;;;;;5057660;28;20768;-62
2023/01/19 05:45:28;;;;;;;25.05;12.45;;;;;;;;;;5070064;28;20078;-62
2023/01/19 05:47:54;;;;;;;29.95;13.60;;;;;;;;;;5072379;28;20464;-63
2023/01/19 05:50:19;;;;;;;29.27;12.15;;;;;;;;;;5085613;28;20043;-63
2023/01/19 05:52:45;;;;;;;19.65;10.63;;;;;;;;;;5071679;28;20090;-62
2023/01/19 05:55:10;;;;;;;22.42;10.55;;;;;;;;;;5072544;28;20039;-63
2023/01/19 05:57:36;;;;;;;24.73;11.73;;;;;;;;;;5070880;28;20385;-62
2023/01/19 06:00:03;;;;;;;22.40;10.88;;;;;;;;;;5073753;28;20397;-64
2023/01/19 06:02:29;;;;;;;17.25;8.73;;;;;;;;;;5069348;28;20549;-61
2023/01/19 06:04:54;;;;;;;30.85;14.45;;;;;;;;;;5058571;28;20036;-63
2023/01/19 06:07:20;;;;;;;22.92;10.48;;;;;;;;;;5073681;28;20036;-63
2023/01/19 06:09:46;;;;;;;32.40;16.17;;;;;;;;;;5071428;28;20493;-63
2023/01/19 06:12:11;;;;;;;23.63;11.80;;;;;;;;;;5060280;28;20037;-64
2023/01/19 06:14:36;;;;;;;22.67;11.48;;;;;;;;;;5067305;28;20466;-63
2023/01/19 06:17:04;;;;;;;32.08;13.38;;;;;;;;;;5072718;28;20133;-65
2023/01/19 06:19:30;;;;;;;25.13;11.90;;;;;;;;;;5088424;28;20090;-62
2023/01/19 06:21:56;;;;;;;23.17;11.10;;;;;;;;;;5093758;28;20028;-64
2023/01/19 06:24:22;;;;;;;26.48;12.43;;;;;;;;;;5058265;28;20036;-64
2023/01/19 06:26:48;;;;;;;27.70;13.27;;;;;;;;;;5071486;28;20020;-64
2023/01/19 06:29:14;;;;;;;21.25;9.25;;;;;;;;;;5074245;28;20028;-64
2023/01/19 06:31:40;;;;;;;22.05;10.60;;;;;;;;;;5071297;28;20041;-65
2023/01/19 06:34:06;;;;;;;26.38;10.65;;;;;;;;;;5074309;28;20143;-64
2023/01/19 06:36:31;;;;;;;31.30;13.35;;;;;;;;;;5074957;28;20032;-62
2023/01/19 06:38:57;;;;;;;28.20;12.90;;;;;;;;;;5071579;28;20028;-64
2023/01/19 06:41:22;;;;;;;24.85;12.50;;;;;;;;;;5073586;28;20068;-64
2023/01/19 06:43:48;;;;;;;18.67;8.95;;;;;;;;;;5069061;28;20044;-64
2023/01/19 06:46:13;;;;;;;29.65;12.63;;;;;;;;;;5072954;28;20064;-66
2023/01/19 06:48:38;;;;;;;19.23;9.02;;;;;;;;;;5071696;28;20469;-64
2023/01/19 06:51:05;;;;;;;14.15;6.47;;;;;;;;;;5073198;28;20021;-65
2023/01/19 06:53:30;;;;;;;25.30;11.35;;;;;;;;;;5071592;28;20397;-63
2023/01/19 06:56:00;;;;;;;20.55;10.98;;;;;;;;;;5072876;28;20040;-66
2023/01/19 06:58:30;;;;;;;23.67;11.13;;;;;;;;;;5072060;28;20059;-67
2023/01/19 07:01:00;;;;;;;25.10;12.30;;;;;;;;;;5072455;28;20496;-69
2023/01/19 07:03:25;;;;;;;14.60;6.73;;;;;;;;;;5069706;28;20029;-66
2023/01/19 07:05:51;;;;;;;18.67;9.40;;;;;;;;;;5090290;28;21060;-66
2023/01/19 07:08:17;;;;;;;15.98;8.93;;;;;;;;;;5065776;28;20504;-67
2023/01/19 07:10:42;;;;;;;28.10;11.93;;;;;;;;;;5051810;28;20060;-66
2023/01/19 07:13:08;;;;;;;19.80;10.15;;;;;;;;;;5058678;28;20094;-65
2023/01/19 07:15:34;;;;;;;16.38;9.18;;;;;;;;;;5070271;28;20020;-67
2023/01/19 07:18:03;;;;;;;22.35;10.07;;;;;;;;;;5070561;28;20123;-67
2023/01/19 07:20:28;;;;;;;24.00;10.85;;;;;;;;;;5070853;28;20030;-63
2023/01/19 07:22:55;;;;;;;19.58;10.18;;;;;;;;;;5060518;28;20361;-67
2023/01/19 07:25:20;;;;;;;20.27;9.95;;;;;;;;;;5060328;28;20029;-68
2023/01/19 07:27:45;;;;;;;20.23;9.15;;;;;;;;;;5071482;28;20346;-68
2023/01/19 07:30:11;;;;;;;21.02;10.48;;;;;;;;;;5071625;28;20378;-65
2023/01/19 07:32:37;;;;;;;17.85;9.50;;;;;;;;;;5070385;28;20036;-65
2023/01/19 07:35:03;;;;;;;19.58;10.73;;;;;;;;;;5067616;28;20040;-63
2023/01/19 07:37:28;;;;;;;29.98;14.50;;;;;;;;;;5068920;28;20032;-64
2023/01/19 07:39:54;;;;;;;27.63;12.40;;;;;;;;;;5057238;28;20043;-62
2023/01/19 07:42:19;;;;;;;24.73;11.40;;;;;;;;;;5072073;28;20028;-63
2023/01/19 07:44:44;;;;;;;25.98;11.05;;;;;;;;;;5075828;28;20031;-62
2023/01/19 07:47:11;;;;;;;31.52;14.00;;;;;;;;;;5091771;28;20045;-63
2023/01/19 07:49:37;;;;;;;26.35;13.07;;;;;;;;;;5080246;28;20024;-65
2023/01/19 07:52:03;;;;;;;17.85;9.07;;;;;;;;;;5069309;28;20045;-65
2023/01/19 07:54:28;;;;;;;28.98;13.35;;;;;;;;;;5065013;28;20440;-61
2023/01/19 07:56:54;;;;;;;28.02;12.93;;;;;;;;;;5067615;28;20362;-62
2023/01/19 07:59:19;;;;;;;41.03;14.55;;;;;;;;;;5088549;28;20055;-61
2023/01/19 08:01:44;;;;;;;26.10;9.63;;;;;;;;;;5088301;28;20084;-63
2023/01/19 08:04:10;;;;;;;25.20;11.18;;;;;;;;;;5087760;28;20021;-60
2023/01/19 08:06:38;;;;;;;29.48;13.70;;;;;;;;;;5070776;28;20086;-61
2023/01/19 08:09:05;;;;;;;28.92;14.23;;;;;;;;;;5051940;28;20115;-62
2023/01/19 08:11:31;;;;;;;18.80;9.75;;;;;;;;;;5056384;28;20032;-62
2023/01/19 08:13:56;;;;;;;23.90;11.07;;;;;;;;;;5069824;28;20089;-62
2023/01/19 08:16:22;;;;;;;27.40;13.25;;;;;;;;;;5090455;28;20105;-62
2023/01/19 08:18:48;;;;;;;27.58;13.65;;;;;;;;;;5090240;28;20519;-63
2023/01/19 08:21:13;;;;;;;28.02;12.65;;;;;;;;;;5091267;28;20039;-63
2023/01/19 08:23:39;;;;;;;19.95;10.18;;;;;;;;;;5057164;28;20087;-63
2023/01/19 08:26:26;;;;;;;28.77;13.43;;;;;;;;;;5068982;28;20040;-62
2023/01/19 08:28:52;;;;;;;22.27;10.05;;;;;;;;;;5077290;28;20032;-62
2023/01/19 08:31:18;;;;;;;30.08;14.18;;;;;;;;;;5070128;28;20045;-62
2023/01/19 08:33:43;;;;;;;27.80;8.73;;;;;;;;;;5082932;28;20026;-62
2023/01/19 08:36:09;;;;;;;29.90;13.32;;;;;;;;;;5090334;28;20064;-62
2023/01/19 08:38:34;;;;;;;26.02;11.95;;;;;;;;;;5073249;28;20535;-64
2023/01/19 08:41:00;;;;;;;28.27;12.95;;;;;;;;;;5070829;28;20103;-62
2023/01/19 08:43:25;;;;;;;27.45;14.45;;;;;;;;;;5068903;28;20111;-62
2023/01/19 08:45:51;;;;;;;19.00;10.20;;;;;;;;;;5069126;28;20094;-61
2023/01/19 08:48:20;;;;;;;16.52;8.95;;;;;;;;;;5078157;28;20036;-62
2023/01/19 08:50:47;;;;;;;22.52;10.65;;;;;;;;;;5066583;28;20041;-61
2023/01/19 08:53:12;;;;;;;29.75;13.38;;;;;;;;;;5069968;28;20150;-61
2023/01/19 08:55:38;;;;;;;28.35;13.40;;;;;;;;;;5070360;28;20119;-62
2023/01/19 08:58:05;;;;;;;22.85;10.77;;;;;;;;;;5074385;28;20067;-61
2023/01/19 09:00:33;;;;;;;25.20;11.40;;;;;;;;;;5070291;28;20052;-61
2023/01/19 09:03:00;;;;;;;25.15;11.48;;;;;;;;;;5076825;28;20110;-61
2023/01/19 09:05:26;;;;;;;19.67;10.23;;;;;;;;;;5073426;28;20371;-62
2023/01/19 09:07:51;;;;;;;34.00;15.45;;;;;;;;;;5069768;28;20047;-60
2023/01/19 09:10:17;;;;;;;24.13;11.10;;;;;;;;;;5071503;28;20025;-65
2023/01/19 09:12:43;;;;;;;22.73;12.10;;;;;;;;;;5068907;28;20107;-61
2023/01/19 09:15:12;;;;;;;22.98;10.05;;;;;;;;;;5070392;28;20462;-62
2023/01/19 09:17:38;;;;;;;23.75;11.95;;;;;;;;;;5070264;28;20028;-54
2023/01/19 09:20:04;;;;;;;28.05;13.77;;;;;;;;;;5069618;28;20052;-62
2023/01/19 09:22:31;;;;;;;20.35;11.15;;;;;;;;;;5067356;28;20104;-61
2023/01/19 09:24:56;;;;;;;21.05;11.23;;;;;;;;;;5058128;28;20051;-62
2023/01/19 09:27:22;;;;;;;30.42;15.82;;;;;;;;;;5073488;28;20037;-61
2023/01/19 09:29:51;;;;;;;34.22;14.88;;;;;;;;;;5069111;28;20465;-62
2023/01/19 09:32:18;;;;;;;29.23;12.57;;;;;;;;;;5074613;28;20078;-61
2023/01/19 09:34:43;;;;;;;27.13;14.13;;;;;;;;;;5075148;28;20040;-61
2023/01/19 09:37:08;;;;;;;31.88;15.65;;;;;;;;;;5080803;28;20032;-61
2023/01/19 09:39:34;;;;;;;23.85;11.65;;;;;;;;;;5082749;28;20073;-61
2023/01/19 09:42:13;;;;;;;26.75;13.82;;;;;;;;;;5053522;28;20055;-62
2023/01/19 09:44:40;;;;;;;31.08;16.15;;;;;;;;;;5079782;28;20396;-62
2023/01/19 09:47:14;;;;;;;33.47;16.08;;;;;;;;;;5094294;28;20055;-62
2023/01/19 09:49:44;;;;;;;40.97;18.73;;;;;;;;;;5077588;28;20048;-62
2023/01/19 09:52:12;;;;;;;27.50;12.40;;;;;;;;;;5073061;28;20511;-62
2023/01/19 09:54:51;;;;;;;25.10;12.85;;;;;;;;;;5073290;28;20039;-63
2023/01/19 09:57:17;;;;;;;24.33;12.63;;;;;;;;;;5072764;28;20031;-62
2023/01/19 09:59:46;;;;;;;17.27;9.07;;;;;;;;;;5087073;28;20044;-62
2023/01/19 10:02:17;;;;;;;22.63;11.90;;;;;;;;;;5053278;28;20064;-62
2023/01/19 10:05:03;;;;;;;;;;;;;;;;;;5087560;28;20110;-62
2023/01/19 10:07:54;;;;;;;19.02;10.70;;;;;;;;;;5075084;28;19916;-62
2023/01/19 10:10:27;;;;;;;32.75;14.60;;;;;;;;;;5073653;28;20442;-62
2023/01/19 10:13:24;;;;;;;33.13;16.13;;;;;;;;;;5070925;28;20036;-62
2023/01/19 10:16:20;;;;;;;26.90;15.35;;;;;;;;;;5086800;28;20032;-61
2023/01/19 10:18:50;;;;;;;30.83;15.50;;;;;;;;;;5092875;28;20085;-62
2023/01/19 10:21:38;;;;;;;30.10;15.15;;;;;;;;;;5069846;28;20172;-62
2023/01/19 10:24:12;;;;;;;25.23;11.98;;;;;;;;;;5072508;28;20111;-62
2023/01/19 10:26:43;;;;;;;27.80;12.93;;;;;;;;;;5072238;28;20111;-61
2023/01/19 10:29:20;;;;;;;26.77;13.60;;;;;;;;;;5084352;28;20028;-61
2023/01/19 10:31:47;;;;;;;36.33;17.33;;;;;;;;;;5087416;28;20116;-61
2023/01/19 10:34:17;;;;;;;21.83;11.65;;;;;;;;;;5073303;28;20358;-62
2023/01/19 10:36:45;;;;;;;32.72;17.10;;;;;;;;;;5072731;28;20082;-61
2023/01/19 10:39:15;;;;;;;28.98;14.65;;;;;;;;;;5093495;28;20028;-61
2023/01/19 10:41:42;;;;;;;33.90;16.02;;;;;;;;;;5057231;28;20078;-60
2023/01/19 10:44:09;;;;;;;31.50;15.70;;;;;;;;;;5072232;28;20032;-61
2023/01/19 10:46:47;;;;;;;20.40;11.50;;;;;;;;;;5069139;28;20048;-62
2023/01/19 10:49:28;;;;;;;20.67;11.40;;;;;;;;;;5089733;28;20062;-62
2023/01/19 10:51:54;;;;;;;;;;;;;;;;;;5076320;28;20071;-62
2023/01/19 10:54:21;;;;;;;23.45;12.38;;;;;;;;;;5072374;28;19912;-62
2023/01/19 10:56:54;;;;;;;36.25;17.80;;;;;;;;;;5070056;28;20565;-62
2023/01/19 10:59:49;;;;;;;26.50;14.10;;;;;;;;;;5071783;28;20047;-62
2023/01/19 11:02:17;;;;;;;28.52;13.73;;;;;;;;;;5066854;28;20033;-62
2023/01/19 11:04:44;;;;;;;38.75;17.67;;;;;;;;;;5051031;28;20031;-62
2023/01/19 11:07:16;;;;;;;37.42;18.40;;;;;;;;;;5065128;28;20489;-63
2023/01/19 11:09:42;;;;;;;42.13;18.98;;;;;;;;;;5070699;28;20098;-62
2023/01/19 11:12:21;;;;;;;37.55;17.55;;;;;;;;;;5083476;28;20472;-61
2023/01/19 11:14:48;;;;;;;40.08;16.70;;;;;;;;;;5092491;28;20028;-62
2023/01/19 11:17:21;;;;;;;37.05;16.70;;;;;;;;;;5076041;28;20074;-62
2023/01/19 11:19:58;;;;;;;30.90;15.18;;;;;;;;;;5070668;28;20040;-62
2023/01/19 11:22:31;;;;;;;37.97;18.00;;;;;;;;;;5081581;28;20437;-62
2023/01/19 11:24:59;;;;;;;20.38;10.70;;;;;;;;;;5069537;28;20473;-62
2023/01/19 11:27:25;;;;;;;36.00;16.35;;;;;;;;;;5074119;28;20441;-61
2023/01/19 11:30:04;;;;;;;34.22;15.30;;;;;;;;;;5070107;28;20029;-62
2023/01/19 11:32:32;;;;;;;40.05;17.92;;;;;;;;;;5071385;28;20115;-61
2023/01/19 11:34:58;;;;;;;34.97;17.08;;;;;;;;;;5069700;28;20040;-61
2023/01/19 11:37:27;;;;;;;26.10;12.52;;;;;;;;;;5068960;28;20040;-61
2023/01/19 11:40:03;;;;;;;33.75;14.95;;;;;;;;;;5067333;28;20039;-62
2023/01/19 11:42:31;;;;;;;28.48;11.50;;;;;;;;;;5068637;28;20082;-62
2023/01/19 11:44:56;;;;;;;28.25;13.60;;;;;;;;;;5090535;28;20033;-62
2023/01/19 11:47:34;;;;;;;24.67;10.50;;;;;;;;;;5071302;28;20028;-62
2023/01/19 11:50:03;;;;;;;31.98;15.00;;;;;;;;;;5070730;28;20099;-62
2023/01/19 11:52:52;;;;;;;38.97;16.77;;;;;;;;;;5066561;28;20043;-62
2023/01/19 11:55:36;;;;;;;32.03;14.10;;;;;;;;;;5088787;28;20469;-61
2023/01/19 11:58:02;;;;;;;34.17;16.33;;;;;;;;;;5084166;28;20028;-62
2023/01/19 12:00:39;;;;;;;17.88;8.25;;;;;;;;;;5082090;28;20048;-62
2023/01/19 12:03:13;;;;;;;22.15;10.68;;;;;;;;;;5067389;28;20064;-62
2023/01/19 12:05:42;;;;;;;23.15;11.13;;;;;;;;;;5076153;28;20086;-63
2023/01/19 12:08:15;;;;;;;29.60;11.80;;;;;;;;;;5071058;28;20115;-62
2023/01/19 12:10:44;;;;;;;37.75;15.05;;;;;;;;;;5067638;28;20040;-64
2023/01/19 12:13:25;;;;;;;25.55;12.63;;;;;;;;;;5069436;28;20119;-63
2023/01/19 12:16:03;;;;;;;39.13;15.77;;;;;;;;;;5050708;28;20112;-62
2023/01/19 12:18:47;;;;;;;40.35;15.93;;;;;;;;;;5053729;28;20258;-62
2023/01/19 12:21:12;;;;;;;37.22;15.48;;;;;;;;;;5071115;28;20035;-62
2023/01/19 12:23:47;;;;;;;37.20;15.60;;;;;;;;;;5068968;28;20020;-63
2023/01/19 12:26:15;;;;;;;26.35;12.88;;;;;;;;;;5091656;28;20491;-61
2023/01/19 12:28:47;;;;;;;25.05;11.43;;;;;;;;;;5086089;28;20037;-62
2023/01/19 12:31:22;;;;;;;38.33;16.48;;;;;;;;;;5070305;28;20119;-60
2023/01/19 12:33:48;;;;;;;34.22;11.38;;;;;;;;;;5075429;28;20035;-59
2023/01/19 12:36:25;;;;;;;32.67;15.10;;;;;;;;;;5083684;28;20111;-61
2023/01/19 12:39:09;;;;;;;51.83;19.40;;;;;;;;;;5070201;28;20409;-62
2023/01/19 12:41:36;;;;;;;48.78;20.70;;;;;;;;;;5051366;28;20031;-60
2023/01/19 12:44:12;;;;;;;47.03;17.83;;;;;;;;;;5059743;28;20028;-61
2023/01/19 12:46:44;;;;;;;28.95;13.23;;;;;;;;;;5070074;28;20111;-60
2023/01/19 12:49:16;;;;;;;57.53;21.90;;;;;;;;;;5076836;28;20506;-59
2023/01/19 12:51:41;;;;;;;49.20;21.63;;;;;;;;;;5071485;28;20116;-59
2023/01/19 12:54:19;;;;;;;38.00;14.63;;;;;;;;;;5060000;28;20115;-60
2023/01/19 12:56:44;;;;;;;50.03;20.50;;;;;;;;;;5072635;28;20396;-60
2023/01/19 12:59:26;;;;;;;44.65;19.80;;;;;;;;;;5083023;28;20032;-59
2023/01/19 13:02:36;;;;;;;35.45;16.02;;;;;;;;;;5089869;28;20025;-58
2023/01/19 13:05:10;;;;;;;39.05;16.35;;;;;;;;;;5070485;28;20147;-59
2023/01/19 13:08:00;;;;;;;44.30;18.52;;;;;;;;;;5056615;28;20568;-58
2023/01/19 13:10:53;;;;;;;46.67;19.17;;;;;;;;;;5059302;28;20070;-57
2023/01/19 13:13:29;;;;;;;49.72;20.25;;;;;;;;;;5070070;28;20081;-58
2023/01/19 13:15:59;;;;;;;43.58;17.17;;;;;;;;;;5069844;28;20029;-61
2023/01/19 13:18:28;;;;;;;34.80;14.32;;;;;;;;;;5069377;28;20034;-57
2023/01/19 13:21:08;;;;;;;48.35;20.20;;;;;;;;;;5069632;28;20037;-60
2023/01/19 13:23:48;;;;;;;39.13;17.10;;;;;;;;;;5073370;28;20032;-59
2023/01/19 13:26:16;;;;;;;47.38;20.90;;;;;;;;;;5073263;28;20066;-61
2023/01/19 13:28:44;;;;;;;45.15;16.92;;;;;;;;;;5083037;28;20420;-60
2023/01/19 13:31:11;;;;;;;42.85;18.50;;;;;;;;;;5090900;28;20039;-59
2023/01/19 13:33:47;;;;;;;38.83;18.10;;;;;;;;;;5079253;28;20029;-57
2023/01/19 13:36:21;;;;;;;44.63;18.63;;;;;;;;;;5080397;28;20039;-61
2023/01/19 13:38:50;;;;;;;41.05;18.77;;;;;;;;;;5058691;28;20037;-61
2023/01/19 13:41:19;;;;;;;38.42;17.70;;;;;;;;;;5078417;28;20032;-60
2023/01/19 13:43:46;;;;;;;37.45;15.55;;;;;;;;;;5072982;28;20060;-61
2023/01/19 13:46:13;;;;;;;43.75;17.65;;;;;;;;;;5072783;28;20024;-64
2023/01/19 13:48:50;;;;;;;32.83;13.23;;;;;;;;;;5085861;28;20495;-58
2023/01/19 13:51:17;;;;;;;37.88;15.73;;;;;;;;;;5093019;28;20465;-58
2023/01/19 13:53:56;;;;;;;44.63;19.42;;;;;;;;;;5086978;28;20034;-61
2023/01/19 13:56:23;;;;;;;36.40;15.30;;;;;;;;;;5072476;28;20146;-58
2023/01/19 13:59:11;;;;;;;21.50;10.85;;;;;;;;;;5062533;28;20040;-62
2023/01/19 14:01:42;;;;;;;45.80;19.45;;;;;;;;;;5056814;28;20067;-61
2023/01/19 14:04:25;;;;;;;;;;;;;;;;;;5062797;28;20636;-60
2023/01/19 14:06:54;;;;;;;31.58;15.70;;;;;;;;;;5070965;28;19922;-61
2023/01/19 14:09:20;;;;;;;37.08;16.63;;;;;;;;;;5071056;28;20016;-61
2023/01/19 14:12:12;;;;;;;67.18;25.65;;;;;;;;;;5071925;28;20086;-62
2023/01/19 14:14:39;;;;;;;42.90;17.52;;;;;;;;;;5072158;28;20358;-61
2023/01/19 14:17:20;;;;;;;35.08;15.13;;;;;;;;;;5092977;28;20120;-61
2023/01/19 14:19:53;;;;;;;39.17;18.70;;;;;;;;;;5091926;28;20389;-61
2023/01/19 14:22:19;;;;;;;41.85;18.38;;;;;;;;;;5093696;28;20124;-61
2023/01/19 14:24:45;;;;;;;36.78;15.98;;;;;;;;;;5091728;28;20086;-61
2023/01/19 14:27:23;;;;;;;31.98;15.00;;;;;;;;;;5082862;28;20473;-61
2023/01/19 14:29:52;;;;;;;36.03;15.65;;;;;;;;;;5067511;28;20032;-66
2023/01/19 14:32:19;;;;;;;40.00;16.80;;;;;;;;;;5067297;28;20086;-61
2023/01/19 14:34:44;;;;;;;45.17;17.27;;;;;;;;;;5072352;28;20040;-61
2023/01/19 14:37:18;;;;;;;40.60;19.52;;;;;;;;;;5068037;28;20045;-61
2023/01/19 14:39:49;;;;;;;33.83;16.73;;;;;;;;;;5085815;28;20172;-61
2023/01/19 14:42:23;;;;;;;37.38;16.08;;;;;;;;;;5093270;28;20115;-61
2023/01/19 14:44:52;;;;;;;38.60;17.98;;;;;;;;;;5073081;28;20116;-61